createdAt,value
2023-03-14T00:01:39.429Z,100849.28
2023-03-14T00:04:09.875Z,100839.28
2023-03-14T00:06:40.233Z,100850.34
2023-03-14T00:09:10.779Z,100853.91
2023-03-14T00:11:41.698Z,100846.72
2023-03-14T00:14:12.232Z,100841.66
2023-03-14T00:16:43.606Z,100833.47
2023-03-14T00:19:14.024Z,100835.34
2023-03-14T00:21:45.001Z,100839.25
2023-03-14T00:24:15.848Z,100837.16
2023-03-14T00:26:46.640Z,100845.97
2023-03-14T00:29:17.311Z,100841.25
2023-03-14T00:31:48.844Z,100833.28
2023-03-14T00:34:19.717Z,100835.44
2023-03-14T00:36:53.309Z,100840.31
2023-03-14T00:39:23.928Z,100838.94
2023-03-14T00:41:54.364Z,100843.69
2023-03-14T00:44:25.740Z,100844.31
2023-03-14T00:46:56.372Z,100841.59
2023-03-14T00:49:28.691Z,100845.97
2023-03-14T00:51:59.078Z,100834.72
2023-03-14T00:54:30.093Z,100851.97
2023-03-14T00:57:00.551Z,100836.72
2023-03-14T00:59:31.242Z,100830.47
2023-03-14T01:02:01.980Z,100833.28
2023-03-14T01:04:33.769Z,100833.44
2023-03-14T01:07:04.205Z,100821.31
2023-03-14T01:09:35.595Z,100832.69
2023-03-14T01:12:06.087Z,100823.25
2023-03-14T01:14:36.972Z,100820.78
2023-03-14T01:17:07.764Z,100821.63
2023-03-14T01:19:38.456Z,100819.38
2023-03-14T01:22:09.927Z,100812.25
2023-03-14T01:24:41.807Z,100808.66
2023-03-14T01:27:12.625Z,100798.66
2023-03-14T01:29:43.080Z,100801.34
2023-03-14T01:32:13.789Z,100806.47
2023-03-14T01:34:44.465Z,100796.28
2023-03-14T01:37:15.651Z,100793.00
2023-03-14T01:39:46.115Z,100781.44
2023-03-14T01:42:17.262Z,100789.38
2023-03-14T01:45:06.213Z,100795.75
2023-03-14T01:47:36.743Z,100804.19
2023-03-14T01:50:13.381Z,100801.06
2023-03-14T01:52:55.130Z,100792.94
2023-03-14T01:55:28.028Z,100786.63
2023-03-14T01:58:06.390Z,100785.00
2023-03-14T02:00:37.879Z,100787.03
2023-03-14T02:03:19.815Z,100777.78
2023-03-14T02:05:51.596Z,100771.94
2023-03-14T02:08:26.961Z,100767.78
2023-03-14T02:11:01.405Z,100765.78
2023-03-14T02:14:08.289Z,100759.34
2023-03-14T02:17:19.834Z,100748.09
2023-03-14T02:20:22.402Z,100761.69
2023-03-14T02:22:58.781Z,100757.03
2023-03-14T02:26:00.376Z,100741.34
2023-03-14T02:28:30.762Z,100740.34
2023-03-14T02:31:04.330Z,100735.13
2023-03-14T02:33:38.431Z,100739.50
2023-03-14T02:36:12.326Z,100731.84
2023-03-14T02:38:43.441Z,100726.44
2023-03-14T02:41:14.703Z,100735.75
2023-03-14T02:43:51.001Z,100738.09
2023-03-14T02:46:24.821Z,100743.03
2023-03-14T02:49:13.455Z,100742.31
2023-03-14T02:51:46.379Z,100742.31
2023-03-14T02:54:18.918Z,100715.16
2023-03-14T02:56:49.810Z,100726.25
2023-03-14T02:59:20.030Z,100719.16
2023-03-14T03:02:02.430Z,100720.66
2023-03-14T03:04:34.759Z,100723.00
2023-03-14T03:07:05.108Z,100723.09
2023-03-14T03:09:35.588Z,100722.38
2023-03-14T03:12:05.942Z,100714.56
2023-03-14T03:14:36.674Z,100718.41
2023-03-14T03:17:09.115Z,100715.88
2023-03-14T03:19:42.044Z,100717.06
2023-03-14T03:22:14.437Z,100713.69
2023-03-14T03:24:47.029Z,100708.69
2023-03-14T03:27:17.540Z,100710.66
2023-03-14T03:29:48.167Z,100699.66
2023-03-14T03:32:19.026Z,100712.16
2023-03-14T03:34:49.494Z,100703.19
2023-03-14T03:37:20.497Z,100697.78
2023-03-14T03:39:52.793Z,100680.19
2023-03-14T03:42:23.411Z,100677.81
2023-03-14T03:44:54.898Z,100678.47
2023-03-14T03:47:27.030Z,100675.97
2023-03-14T03:49:59.832Z,100677.34
2023-03-14T03:52:30.168Z,100681.81
2023-03-14T03:55:00.493Z,100667.28
2023-03-14T03:57:32.152Z,100658.53
2023-03-14T04:00:02.736Z,100652.88
2023-03-14T04:02:44.182Z,100658.72
2023-03-14T04:05:18.511Z,100652.81
2023-03-14T04:07:56.089Z,100641.75
2023-03-14T04:10:29.488Z,100640.06
2023-03-14T04:13:13.112Z,100629.31
2023-03-14T04:15:46.082Z,100631.88
2023-03-14T04:18:27.125Z,100611.56
2023-03-14T04:20:57.898Z,100629.66
2023-03-14T04:23:40.637Z,100627.69
2023-03-14T04:26:11.129Z,100623.59
2023-03-14T04:28:41.747Z,100607.56
2023-03-14T04:31:15.988Z,100604.25
2023-03-14T04:33:46.488Z,100603.22
2023-03-14T04:36:19.406Z,100587.78
2023-03-14T04:38:49.762Z,100589.56
2023-03-14T04:41:23.896Z,100589.56
2023-03-14T04:43:54.272Z,100592.03
2023-03-14T04:46:25.494Z,100585.84
2023-03-14T04:48:56.758Z,100575.97
2023-03-14T04:51:29.877Z,100571.16
2023-03-14T04:54:00.362Z,100571.06
2023-03-14T04:56:31.676Z,100561.19
2023-03-14T04:59:03.683Z,100560.16
2023-03-14T05:01:36.130Z,100553.84
2023-03-14T05:04:38.629Z,100549.56
2023-03-14T05:07:34.784Z,100544.66
2023-03-14T05:10:21.832Z,100539.63
2023-03-14T05:13:13.231Z,100546.53
2023-03-14T05:16:09.084Z,100541.50
2023-03-14T05:18:53.427Z,100544.22
2023-03-14T05:21:42.085Z,100541.81
2023-03-14T05:24:32.938Z,100532.59
2023-03-14T05:27:06.757Z,100542.63
2023-03-14T05:30:13.853Z,100536.34
2023-03-14T05:33:10.493Z,100535.72
2023-03-14T05:35:49.536Z,100540.75
2023-03-14T05:38:39.056Z,100527.84
2023-03-14T05:41:27.161Z,100523.97
2023-03-14T05:44:17.962Z,100525.25
2023-03-14T05:47:14.166Z,100527.97
2023-03-14T05:50:16.731Z,100524.28
2023-03-14T05:53:03.713Z,100534.44
2023-03-14T05:56:02.948Z,100520.50
2023-03-14T05:58:51.635Z,100514.75
2023-03-14T06:01:36.748Z,100514.22
2023-03-14T06:04:18.496Z,100516.22
2023-03-14T06:06:54.651Z,100520.38
2023-03-14T06:09:25.941Z,100514.88
2023-03-14T06:11:59.765Z,100514.13
2023-03-14T06:14:34.086Z,100515.47
2023-03-14T06:17:05.138Z,100516.34
2023-03-14T06:19:41.996Z,100527.09
2023-03-14T06:22:15.063Z,100527.34
2023-03-14T06:24:45.570Z,100522.94
2023-03-14T06:27:16.149Z,100525.78
2023-03-14T06:29:46.987Z,100533.75
2023-03-14T06:32:17.517Z,100526.22
2023-03-14T06:34:49.319Z,100517.34
2023-03-14T06:37:21.035Z,100509.31
2023-03-14T06:39:52.390Z,100509.38
2023-03-14T06:42:37.962Z,100508.66
2023-03-14T06:45:09.098Z,100521.53
2023-03-14T06:47:40.674Z,100519.75
2023-03-14T06:50:12.857Z,100515.28
2023-03-14T06:52:48.689Z,100525.00
2023-03-14T06:55:24.258Z,100528.88
2023-03-14T06:57:54.779Z,100534.00
2023-03-14T07:00:25.937Z,100517.34
2023-03-14T07:02:58.766Z,100515.66
2023-03-14T07:05:35.614Z,100523.22
2023-03-14T07:08:06.124Z,100511.19
2023-03-14T07:10:36.928Z,100507.81
2023-03-14T07:13:09.616Z,100507.63
2023-03-14T07:15:51.785Z,100516.00
2023-03-14T07:18:22.197Z,100508.84
2023-03-14T07:20:53.097Z,100507.19
2023-03-14T07:23:23.978Z,100507.00
2023-03-14T07:25:56.646Z,100502.69
2023-03-14T07:28:29.759Z,100502.16
2023-03-14T07:31:21.480Z,100512.47
2023-03-14T07:33:53.136Z,100505.63
2023-03-14T07:36:25.060Z,100510.25
2023-03-14T07:38:55.596Z,100503.34
2023-03-14T07:41:37.855Z,100503.47
2023-03-14T07:44:34.517Z,100516.03
2023-03-14T07:47:05.027Z,100507.94
2023-03-14T07:49:35.638Z,100503.63
2023-03-14T07:52:06.031Z,100500.47
2023-03-14T07:54:36.648Z,100506.66
2023-03-14T07:57:07.145Z,100502.56
2023-03-14T07:59:37.591Z,100504.47
2023-03-14T08:02:13.493Z,100504.91
2023-03-14T08:04:44.108Z,100507.19
2023-03-14T08:07:14.614Z,100508.34
2023-03-14T08:09:45.160Z,100500.56
2023-03-14T08:12:15.653Z,100514.91
2023-03-14T08:14:46.058Z,100511.13
2023-03-14T08:17:16.861Z,100506.84
2023-03-14T08:19:47.327Z,100510.59
2023-03-14T08:22:19.930Z,100509.03
2023-03-14T08:24:50.759Z,100503.94
2023-03-14T08:27:20.974Z,100512.97
2023-03-14T08:29:51.324Z,100514.72
2023-03-14T08:32:22.752Z,100519.13
2023-03-14T08:34:53.537Z,100517.84
2023-03-14T08:37:26.946Z,100519.72
2023-03-14T08:39:57.594Z,100523.38
2023-03-14T08:42:28.067Z,100521.72
2023-03-14T08:44:58.664Z,100522.97
2023-03-14T08:47:29.343Z,100526.69
2023-03-14T08:49:59.812Z,100535.47
2023-03-14T08:52:30.235Z,100533.78
2023-03-14T08:55:01.235Z,100522.50
2023-03-14T08:57:31.692Z,100521.91
2023-03-14T09:00:02.598Z,100526.31
2023-03-14T09:02:32.917Z,100518.75
2023-03-14T09:05:03.321Z,100526.50
2023-03-14T09:07:33.940Z,100537.91
2023-03-14T09:10:04.350Z,100536.22
2023-03-14T09:12:34.701Z,100531.84
2023-03-14T09:15:05.534Z,100547.63
2023-03-14T09:17:35.931Z,100541.47
2023-03-14T09:20:11.380Z,100543.44
2023-03-14T09:22:41.603Z,100541.88
2023-03-14T09:25:13.318Z,100545.31
2023-03-14T09:27:43.798Z,100547.28
2023-03-14T09:30:15.502Z,100543.06
2023-03-14T09:32:46.632Z,100555.00
2023-03-14T09:35:17.990Z,100554.28
2023-03-14T09:37:48.502Z,100546.53
2023-03-14T09:40:22.483Z,100557.00
2023-03-14T09:42:55.196Z,100555.41
2023-03-14T09:45:48.162Z,100561.56
2023-03-14T09:48:23.150Z,100549.53
2023-03-14T09:51:02.744Z,100557.38
2023-03-14T09:53:45.631Z,100554.97
2023-03-14T09:56:24.241Z,100552.34
2023-03-14T09:59:05.291Z,100564.66
2023-03-14T10:01:38.152Z,100569.16
2023-03-14T10:04:18.625Z,100569.25
2023-03-14T10:06:50.662Z,100573.63
2023-03-14T10:09:29.663Z,100570.38
2023-03-14T10:12:09.033Z,100573.91
2023-03-14T10:14:47.590Z,100576.53
2023-03-14T10:17:19.604Z,100574.94
2023-03-14T10:20:01.721Z,100584.47
2023-03-14T10:22:35.428Z,100585.59
2023-03-14T10:25:10.352Z,100585.59
2023-03-14T10:27:40.795Z,100594.47
2023-03-14T10:30:33.261Z,100596.41
2023-03-14T10:33:13.087Z,100598.09
2023-03-14T10:35:43.372Z,100601.53
2023-03-14T10:38:21.289Z,100601.66
2023-03-14T10:40:55.522Z,100612.00
2023-03-14T10:43:44.926Z,100608.81
2023-03-14T10:46:21.828Z,100614.88
2023-03-14T10:49:10.391Z,100617.72
2023-03-14T10:51:40.704Z,100619.56
2023-03-14T10:54:24.161Z,100614.53
2023-03-14T10:57:06.817Z,100627.50
2023-03-14T10:59:44.889Z,100630.22
2023-03-14T11:02:30.505Z,100626.00
2023-03-14T11:05:22.822Z,100628.72
2023-03-14T11:07:59.879Z,100623.66
2023-03-14T11:10:45.257Z,100627.22
2023-03-14T11:13:15.603Z,100624.59
2023-03-14T11:15:53.123Z,100624.59
2023-03-14T11:18:34.163Z,100631.59
2023-03-14T11:21:39.189Z,100631.69
2023-03-14T11:24:41.478Z,100630.09
2023-03-14T11:27:39.156Z,100625.88
2023-03-14T11:30:51.381Z,100638.09
2023-03-14T11:33:27.892Z,100638.94
2023-03-14T11:36:11.935Z,100638.38
2023-03-14T11:38:51.838Z,100640.97
2023-03-14T11:41:46.285Z,100645.38
2023-03-14T11:44:40.982Z,100644.53
2023-03-14T11:47:26.070Z,100648.25
2023-03-14T11:50:02.340Z,100645.63
2023-03-14T11:52:44.510Z,100650.03
2023-03-14T11:55:38.949Z,100645.84
2023-03-14T11:58:19.017Z,100649.28
2023-03-14T12:00:52.190Z,100658.22
2023-03-14T12:03:44.641Z,100665.13
2023-03-14T12:06:36.246Z,100652.06
2023-03-14T12:09:08.901Z,100650.50
2023-03-14T12:11:46.588Z,100651.31
2023-03-14T12:14:48.394Z,100657.56
2023-03-14T12:17:27.602Z,100661.84
2023-03-14T12:20:09.790Z,100665.50
2023-03-14T12:22:49.422Z,100675.00
2023-03-14T12:25:20.387Z,100676.94
2023-03-14T12:28:13.718Z,100676.28
2023-03-14T12:30:44.825Z,100684.03
2023-03-14T12:33:21.026Z,100685.91
2023-03-14T12:36:00.651Z,100688.50
2023-03-14T12:38:40.141Z,100692.88
2023-03-14T12:41:38.045Z,100699.97
2023-03-14T12:44:33.714Z,100695.63
2023-03-14T12:47:21.055Z,100696.50
2023-03-14T12:50:00.415Z,100695.63
2023-03-14T12:53:11.511Z,100694.88
2023-03-14T12:56:06.374Z,100696.56
2023-03-14T12:59:02.603Z,100698.25
2023-03-14T13:01:35.828Z,100696.75
2023-03-14T13:04:13.163Z,100691.63
2023-03-14T13:07:04.417Z,100694.28
2023-03-14T13:09:36.676Z,100695.31
2023-03-14T13:12:14.159Z,100693.66
2023-03-14T13:14:48.579Z,100695.47
2023-03-14T13:17:36.503Z,100686.81
2023-03-14T13:20:33.630Z,100686.91
2023-03-14T13:23:04.581Z,100692.13
2023-03-14T13:25:39.193Z,100687.81
2023-03-14T13:28:13.310Z,100678.41
2023-03-14T13:30:48.830Z,100674.00
2023-03-14T13:33:22.372Z,100677.63
2023-03-14T13:35:57.979Z,100680.16
2023-03-14T13:38:31.330Z,100689.78
2023-03-14T13:41:08.883Z,100689.78
2023-03-14T13:43:44.331Z,100692.28
2023-03-14T13:46:27.817Z,100691.59
2023-03-14T13:49:10.519Z,100680.22
2023-03-14T13:51:42.996Z,100676.28
2023-03-14T13:54:22.523Z,100679.66
2023-03-14T13:57:03.397Z,100678.91
2023-03-14T13:59:35.883Z,100681.53
2023-03-14T14:02:18.676Z,100686.75
2023-03-14T14:04:50.459Z,100685.91
2023-03-14T14:07:21.431Z,100688.50
2023-03-14T14:09:55.103Z,100692.97
2023-03-14T14:12:31.993Z,100690.44
2023-03-14T14:15:09.215Z,100690.34
2023-03-14T14:17:50.646Z,100686.91
2023-03-14T14:20:37.041Z,100684.28
2023-03-14T14:23:21.995Z,100698.28
2023-03-14T14:25:53.134Z,100700.13
2023-03-14T14:28:36.166Z,100704.53
2023-03-14T14:31:27.711Z,100708.03
2023-03-14T14:33:59.113Z,100705.53
2023-03-14T14:36:47.253Z,100709.91
2023-03-14T14:39:27.246Z,100709.06
2023-03-14T14:41:57.841Z,100718.72
2023-03-14T14:44:37.622Z,100722.34
2023-03-14T14:47:08.746Z,100724.03
2023-03-14T14:49:40.255Z,100724.03
2023-03-14T14:52:16.638Z,100722.25
2023-03-14T14:54:53.043Z,100718.06
2023-03-14T14:57:27.571Z,100725.06
2023-03-14T15:00:09.806Z,100721.69
2023-03-14T15:02:47.566Z,100720.00
2023-03-14T15:05:19.371Z,100715.63
2023-03-14T15:07:50.548Z,100718.38
2023-03-14T15:10:23.691Z,100711.44
2023-03-14T15:12:55.326Z,100720.16
2023-03-14T15:15:25.838Z,100719.31
2023-03-14T15:17:56.268Z,100724.63
2023-03-14T15:20:27.290Z,100718.56
2023-03-14T15:22:58.046Z,100722.84
2023-03-14T15:25:51.418Z,100716.13
2023-03-14T15:28:23.862Z,100720.25
2023-03-14T15:30:56.638Z,100716.13
2023-03-14T15:33:28.469Z,100711.72
2023-03-14T15:35:59.706Z,100716.13
2023-03-14T15:38:30.977Z,100717.88
2023-03-14T15:41:01.303Z,100718.81
2023-03-14T15:43:31.645Z,100708.47
2023-03-14T15:46:02.074Z,100710.16
2023-03-14T15:48:32.496Z,100711.97
2023-03-14T15:51:02.767Z,100715.44
2023-03-14T15:53:34.043Z,100719.91
2023-03-14T15:56:04.442Z,100730.44
2023-03-14T15:58:38.351Z,100730.50
2023-03-14T16:01:11.784Z,100739.09
2023-03-14T16:03:42.543Z,100747.91
2023-03-14T16:06:13.317Z,100746.09
2023-03-14T16:08:47.541Z,100756.53
2023-03-14T16:11:21.599Z,100744.56
2023-03-14T16:13:53.293Z,100749.78
2023-03-14T16:16:23.572Z,100752.44
2023-03-14T16:18:53.905Z,100767.34
2023-03-14T16:21:25.068Z,100761.28
2023-03-14T16:23:56.120Z,100779.47
2023-03-14T16:26:27.185Z,100773.50
2023-03-14T16:28:57.536Z,100770.03
2023-03-14T16:31:29.079Z,100770.97
2023-03-14T16:34:05.214Z,100775.31
2023-03-14T16:36:36.098Z,100778.03
2023-03-14T16:39:07.041Z,100783.25
2023-03-14T16:41:38.082Z,100780.63
2023-03-14T16:44:08.933Z,100788.47
2023-03-14T16:46:39.551Z,100779.88
2023-03-14T16:49:10.061Z,100782.41
2023-03-14T16:51:40.328Z,100785.16
2023-03-14T16:54:11.027Z,100783.38
2023-03-14T16:56:41.403Z,100785.25
2023-03-14T16:59:12.297Z,100786.19
2023-03-14T17:01:44.452Z,100782.63
2023-03-14T17:04:15.490Z,100779.09
2023-03-14T17:06:47.035Z,100779.19
2023-03-14T17:09:17.328Z,100775.66
2023-03-14T17:11:47.925Z,100780.97
2023-03-14T17:14:18.410Z,100781.78
2023-03-14T17:16:49.170Z,100781.88
2023-03-14T17:19:19.812Z,100774.97
2023-03-14T17:21:53.104Z,100769.75
2023-03-14T17:24:28.402Z,100770.84
2023-03-14T17:26:58.944Z,100767.47
2023-03-14T17:29:30.145Z,100763.94
2023-03-14T17:32:00.489Z,100763.94
2023-03-14T17:34:30.934Z,100763.25
2023-03-14T17:37:01.369Z,100766.72
2023-03-14T17:39:31.758Z,100767.59
2023-03-14T17:42:02.171Z,100762.47
2023-03-14T17:44:33.511Z,100770.31
2023-03-14T17:47:04.610Z,100760.81
2023-03-14T17:49:34.738Z,100761.63
2023-03-14T17:52:05.438Z,100763.41
2023-03-14T17:54:35.768Z,100758.28
2023-03-14T17:57:06.264Z,100750.53
2023-03-14T17:59:36.609Z,100749.69
2023-03-14T18:02:08.157Z,100742.69
2023-03-14T18:04:38.774Z,100732.34
2023-03-14T18:07:10.059Z,100728.81
2023-03-14T18:09:40.364Z,100725.47
2023-03-14T18:12:11.231Z,100734.13
2023-03-14T18:14:45.746Z,100725.47
2023-03-14T18:17:16.783Z,100727.28
2023-03-14T18:19:47.192Z,100730.75
2023-03-14T18:22:17.950Z,100727.28
2023-03-14T18:24:48.157Z,100729.16
2023-03-14T18:27:18.318Z,100725.63
2023-03-14T18:29:48.755Z,100722.91
2023-03-14T18:32:19.326Z,100722.06
2023-03-14T18:34:50.251Z,100721.25
2023-03-14T18:37:21.129Z,100712.75
2023-03-14T18:39:51.581Z,100725.69
2023-03-14T18:42:22.232Z,100721.41
2023-03-14T18:44:52.514Z,100714.50
2023-03-14T18:47:27.272Z,100719.72
2023-03-14T18:49:57.668Z,100720.63
2023-03-14T18:52:28.288Z,100719.03
2023-03-14T18:54:59.972Z,100723.34
2023-03-14T18:57:30.388Z,100713.84
2023-03-14T19:00:00.655Z,100713.00
2023-03-14T19:02:31.067Z,100716.34
2023-03-14T19:05:01.462Z,100703.41
2023-03-14T19:07:31.717Z,100702.63
2023-03-14T19:10:03.178Z,100695.63
2023-03-14T19:12:33.662Z,100700.09
2023-03-14T19:15:04.161Z,100699.25
2023-03-14T19:17:35.042Z,100701.88
2023-03-14T19:20:06.419Z,100703.66
2023-03-14T19:22:37.341Z,100706.25
2023-03-14T19:25:08.272Z,100709.81
2023-03-14T19:27:40.393Z,100708.88
2023-03-14T19:30:11.175Z,100707.97
2023-03-14T19:32:41.550Z,100715.81
2023-03-14T19:35:12.156Z,100714.09
2023-03-14T19:37:43.213Z,100717.81
2023-03-14T19:40:15.340Z,100726.53
2023-03-14T19:42:46.077Z,100722.25
2023-03-14T19:45:16.537Z,100720.56
2023-03-14T19:47:46.924Z,100718.03
2023-03-14T19:50:17.828Z,100731.91
2023-03-14T19:52:49.170Z,100723.31
2023-03-14T19:55:19.587Z,100731.06
2023-03-14T19:57:50.644Z,100730.16
2023-03-14T20:00:22.345Z,100727.53
2023-03-14T20:02:54.644Z,100733.69
2023-03-14T20:05:27.211Z,100724.94
2023-03-14T20:07:57.773Z,100731.91
2023-03-14T20:10:28.092Z,100730.28
2023-03-14T20:13:04.421Z,100735.50
2023-03-14T20:15:41.286Z,100733.72
2023-03-14T20:18:11.604Z,100730.28
2023-03-14T20:20:43.282Z,100743.56
2023-03-14T20:23:15.910Z,100741.78
2023-03-14T20:25:48.471Z,100741.88
2023-03-14T20:28:18.814Z,100747.00
2023-03-14T20:30:49.313Z,100759.19
2023-03-14T20:33:23.218Z,100749.69
2023-03-14T20:36:01.626Z,100741.03
2023-03-14T20:38:32.714Z,100740.19
2023-03-14T20:41:03.271Z,100757.59
2023-03-14T20:43:35.301Z,100750.66
2023-03-14T20:46:07.059Z,100750.66
2023-03-14T20:48:37.685Z,100752.38
2023-03-14T20:51:08.099Z,100750.66
2023-03-14T20:53:39.276Z,100761.03
2023-03-14T20:56:10.520Z,100760.34
2023-03-14T20:58:40.932Z,100766.53
2023-03-14T21:03:58.144Z,100774.63
2023-03-14T21:06:28.448Z,100767.19
2023-03-14T21:08:59.230Z,100768.47
2023-03-14T21:11:29.540Z,100762.53
2023-03-14T21:14:01.460Z,100762.38
2023-03-14T21:16:32.645Z,100756.13
2023-03-14T21:19:03.085Z,100769.44
2023-03-14T21:21:33.691Z,100768.00
2023-03-14T21:24:04.219Z,100771.34
2023-03-14T21:26:35.460Z,100772.22
2023-03-14T21:29:05.787Z,100768.84
2023-03-14T21:31:36.280Z,100775.91
2023-03-14T21:34:06.607Z,100767.59
2023-03-14T21:36:36.746Z,100774.50
2023-03-14T21:39:07.505Z,100771.16
2023-03-14T21:41:37.714Z,100768.53
2023-03-14T21:44:08.110Z,100770.91
2023-03-14T21:46:38.594Z,100776.97
2023-03-14T21:49:08.959Z,100770.53
2023-03-14T21:51:40.048Z,100769.72
2023-03-14T21:54:11.699Z,100761.63
2023-03-14T21:56:42.504Z,100769.34
2023-03-14T21:59:13.997Z,100770.13
2023-03-14T22:01:44.449Z,100774.69
2023-03-14T22:04:15.410Z,100775.50
2023-03-14T22:06:46.171Z,100773.47
2023-03-14T22:09:17.419Z,100783.84
2023-03-14T22:11:47.567Z,100775.94
2023-03-14T22:14:18.459Z,100779.44
2023-03-14T22:16:48.803Z,100787.13
2023-03-14T22:19:19.544Z,100775.09
2023-03-14T22:21:50.681Z,100785.50
2023-03-14T22:24:21.510Z,100783.47
2023-03-14T22:26:56.905Z,100792.31
2023-03-14T22:29:28.828Z,100799.31
2023-03-14T22:31:59.304Z,100789.91
2023-03-14T22:34:32.982Z,100787.81
2023-03-14T22:37:06.137Z,100795.28
2023-03-14T22:39:37.143Z,100790.69
2023-03-14T22:42:07.711Z,100799.38
2023-03-14T22:44:38.238Z,100792.47
2023-03-14T22:47:08.654Z,100790.63
2023-03-14T22:49:39.306Z,100791.22
2023-03-14T22:52:09.770Z,100799.84
2023-03-14T22:54:40.011Z,100801.81
2023-03-14T22:57:10.570Z,100790.91
2023-03-14T22:59:41.033Z,100788.06
2023-03-14T23:02:11.798Z,100790.09
2023-03-14T23:04:42.143Z,100806.94
2023-03-14T23:07:12.483Z,100806.81
2023-03-14T23:09:43.331Z,100815.06
2023-03-14T23:12:13.622Z,100815.63
2023-03-14T23:14:43.930Z,100814.13
2023-03-14T23:17:14.187Z,100816.66
2023-03-14T23:19:47.074Z,100827.66
2023-03-14T23:22:17.588Z,100828.72
2023-03-14T23:24:50.143Z,100830.84
2023-03-14T23:27:23.068Z,100840.13
2023-03-14T23:29:53.432Z,100838.97
2023-03-14T23:32:24.517Z,100830.13
2023-03-14T23:34:55.312Z,100839.38
2023-03-14T23:37:30.200Z,100826.28
2023-03-14T23:40:00.730Z,100831.06
2023-03-14T23:42:31.164Z,100839.44
2023-03-14T23:45:01.365Z,100837.81
2023-03-14T23:47:32.119Z,100841.03
2023-03-14T23:50:02.713Z,100838.41
2023-03-14T23:52:33.568Z,100837.22
2023-03-14T23:55:04.301Z,100842.78
2023-03-14T23:57:35.228Z,100857.69
